createdAt,value
2023-04-20T00:01:31.231Z,5.32
2023-04-20T00:03:58.179Z,5.63
2023-04-20T00:06:29.990Z,5.68
2023-04-20T00:08:56.951Z,5.55
2023-04-20T00:11:23.820Z,6.78
2023-04-20T00:13:50.600Z,6.15
2023-04-20T00:16:17.515Z,6.22
2023-04-20T00:18:47.246Z,6.43
2023-04-20T00:21:14.073Z,6.00
2023-04-20T00:23:41.578Z,6.35
2023-04-20T00:26:09.873Z,6.22
2023-04-20T00:28:36.597Z,6.50
2023-04-20T00:31:03.581Z,6.32
2023-04-20T00:33:30.595Z,5.95
2023-04-20T00:35:57.470Z,6.43
2023-04-20T00:38:24.242Z,6.55
2023-04-20T00:40:54.327Z,6.78
2023-04-20T00:43:22.434Z,6.07
2023-04-20T00:45:49.276Z,6.72
2023-04-20T00:48:16.249Z,6.45
2023-04-20T00:50:43.104Z,6.70
2023-04-20T00:53:10.840Z,6.88
2023-04-20T00:55:39.350Z,6.13
2023-04-20T00:58:06.969Z,6.20
2023-04-20T01:00:34.371Z,6.20
2023-04-20T01:03:01.404Z,5.97
2023-04-20T01:05:28.454Z,6.50
2023-04-20T01:07:55.275Z,6.93
2023-04-20T01:10:22.203Z,6.95
2023-04-20T01:12:48.986Z,6.68
2023-04-20T01:15:16.001Z,7.35
2023-04-20T01:17:43.986Z,6.65
2023-04-20T01:20:12.936Z,7.43
2023-04-20T01:22:48.236Z,6.75
2023-04-20T01:25:15.146Z,6.93
2023-04-20T01:27:42.373Z,6.75
2023-04-20T01:30:09.993Z,7.45
2023-04-20T01:32:36.919Z,6.68
2023-04-20T01:35:04.514Z,6.80
2023-04-20T01:37:31.540Z,6.85
2023-04-20T01:39:58.624Z,6.53
2023-04-20T01:42:25.526Z,7.45
2023-04-20T01:44:52.329Z,6.65
2023-04-20T01:47:19.521Z,6.97
2023-04-20T01:49:46.505Z,7.53
2023-04-20T01:52:13.469Z,6.63
2023-04-20T01:54:40.383Z,6.50
2023-04-20T01:57:07.495Z,6.40
2023-04-20T01:59:34.258Z,6.50
2023-04-20T02:02:01.136Z,7.25
2023-04-20T02:04:28.334Z,6.82
2023-04-20T02:06:55.147Z,7.10
2023-04-20T02:09:22.261Z,6.93
2023-04-20T02:11:49.145Z,6.60
2023-04-20T02:14:15.935Z,7.10
2023-04-20T02:16:43.073Z,7.03
2023-04-20T02:19:10.252Z,6.95
2023-04-20T02:21:37.035Z,7.05
2023-04-20T02:24:04.192Z,6.72
2023-04-20T02:26:31.157Z,7.20
2023-04-20T02:28:57.993Z,7.13
2023-04-20T02:31:24.838Z,7.13
2023-04-20T02:33:52.280Z,7.28
2023-04-20T02:36:19.121Z,7.20
2023-04-20T02:38:46.319Z,7.82
2023-04-20T02:41:13.103Z,6.40
2023-04-20T02:43:40.452Z,6.88
2023-04-20T02:46:07.917Z,7.10
2023-04-20T02:48:34.864Z,7.65
2023-04-20T02:51:01.624Z,7.13
2023-04-20T02:53:28.484Z,7.53
2023-04-20T02:55:55.258Z,7.25
2023-04-20T02:58:22.051Z,7.00
2023-04-20T03:00:49.279Z,7.78
2023-04-20T03:03:16.193Z,7.53
2023-04-20T03:05:43.935Z,7.22
2023-04-20T03:08:10.940Z,7.53
2023-04-20T03:10:37.775Z,7.78
2023-04-20T03:13:04.699Z,7.75
2023-04-20T03:15:31.486Z,7.72
2023-04-20T03:17:58.359Z,7.70
2023-04-20T03:20:25.181Z,7.53
2023-04-20T03:22:51.995Z,7.55
2023-04-20T03:25:19.204Z,8.38
2023-04-20T03:27:47.633Z,7.80
2023-04-20T03:30:15.081Z,8.07
2023-04-20T03:32:45.570Z,7.07
2023-04-20T03:35:12.584Z,7.45
2023-04-20T03:37:39.587Z,7.22
2023-04-20T03:40:08.905Z,7.38
2023-04-20T03:42:35.645Z,7.53
2023-04-20T03:45:02.465Z,8.10
2023-04-20T03:47:29.375Z,8.27
2023-04-20T03:49:56.147Z,7.88
2023-04-20T03:52:22.991Z,7.35
2023-04-20T03:54:49.750Z,8.30
2023-04-20T03:57:16.556Z,7.70
2023-04-20T03:59:43.466Z,7.97
2023-04-20T04:02:13.576Z,8.43
2023-04-20T04:04:41.264Z,8.38
2023-04-20T04:07:08.453Z,9.00
2023-04-20T04:09:35.229Z,8.80
2023-04-20T04:12:02.100Z,7.97
2023-04-20T04:14:30.557Z,8.05
2023-04-20T04:16:57.320Z,9.52
2023-04-20T04:19:24.189Z,8.40
2023-04-20T04:21:50.970Z,8.30
2023-04-20T04:24:17.943Z,8.35
2023-04-20T04:26:46.273Z,8.13
2023-04-20T04:29:13.369Z,8.43
2023-04-20T04:31:40.183Z,8.18
2023-04-20T04:34:07.151Z,7.95
2023-04-20T04:36:34.053Z,8.00
2023-04-20T04:39:00.992Z,7.88
2023-04-20T04:41:27.945Z,8.52
2023-04-20T04:43:54.691Z,8.32
2023-04-20T04:46:21.831Z,8.18
2023-04-20T04:48:48.724Z,8.10
2023-04-20T04:51:15.969Z,7.53
2023-04-20T04:53:45.349Z,8.35
2023-04-20T04:56:13.529Z,7.88
2023-04-20T04:58:40.339Z,7.97
2023-04-20T05:01:07.152Z,7.75
2023-04-20T05:03:34.031Z,8.65
2023-04-20T05:06:01.041Z,7.93
2023-04-20T05:08:28.023Z,8.15
2023-04-20T05:10:54.735Z,8.30
2023-04-20T05:13:21.462Z,8.18
2023-04-20T05:15:48.258Z,7.35
2023-04-20T05:18:15.070Z,7.50
2023-04-20T05:20:41.803Z,8.52
2023-04-20T05:23:08.952Z,7.90
2023-04-20T05:25:35.830Z,9.27
2023-04-20T05:28:02.839Z,7.82
2023-04-20T05:30:29.994Z,7.78
2023-04-20T05:32:59.024Z,8.30
2023-04-20T05:35:25.796Z,7.93
2023-04-20T05:37:52.629Z,7.60
2023-04-20T05:40:19.376Z,8.40
2023-04-20T05:42:46.332Z,9.15
2023-04-20T05:45:13.280Z,8.18
2023-04-20T05:47:40.130Z,8.90
2023-04-20T05:50:07.849Z,7.90
2023-04-20T05:52:34.694Z,8.27
2023-04-20T05:55:01.453Z,8.98
2023-04-20T05:57:28.234Z,7.95
2023-04-20T05:59:56.373Z,9.30
2023-04-20T06:02:23.350Z,9.23
2023-04-20T06:04:50.406Z,9.48
2023-04-20T06:07:17.867Z,8.88
2023-04-20T06:09:44.712Z,8.55
2023-04-20T06:12:14.633Z,8.70
2023-04-20T06:14:41.673Z,8.30
2023-04-20T06:17:08.496Z,8.32
2023-04-20T06:19:35.210Z,9.25
2023-04-20T06:22:07.507Z,8.60
2023-04-20T06:24:35.648Z,8.05
2023-04-20T06:27:03.055Z,8.55
2023-04-20T06:29:29.794Z,10.35
2023-04-20T06:31:56.697Z,8.95
2023-04-20T06:34:23.546Z,5.82
2023-04-20T06:36:50.307Z,8.82
2023-04-20T06:39:18.020Z,8.70
2023-04-20T06:41:47.016Z,8.70
2023-04-20T06:44:13.890Z,7.93
2023-04-20T06:46:40.807Z,8.90
2023-04-20T06:49:07.653Z,8.50
2023-04-20T06:51:34.955Z,8.38
2023-04-20T06:54:01.740Z,8.65
2023-04-20T06:56:28.524Z,8.77
2023-04-20T06:58:55.272Z,8.45
2023-04-20T07:01:22.196Z,8.40
2023-04-20T07:03:49.103Z,9.18
2023-04-20T07:06:20.401Z,9.30
2023-04-20T07:08:47.201Z,8.98
2023-04-20T07:11:17.310Z,8.15
2023-04-20T07:13:44.140Z,8.15
2023-04-20T07:16:11.389Z,8.15
2023-04-20T07:18:38.267Z,8.25
2023-04-20T07:21:05.126Z,8.15
2023-04-20T07:23:31.876Z,8.20
2023-04-20T07:26:00.266Z,8.98
2023-04-20T07:28:27.969Z,8.50
2023-04-20T07:30:54.763Z,8.27
2023-04-20T07:33:21.619Z,7.68
2023-04-20T07:35:52.237Z,7.75
2023-04-20T07:38:19.091Z,8.30
2023-04-20T07:40:45.848Z,8.43
2023-04-20T07:43:13.264Z,7.80
2023-04-20T07:45:41.331Z,8.40
2023-04-20T07:48:09.840Z,7.50
2023-04-20T07:50:36.688Z,8.07
2023-04-20T07:53:03.689Z,7.60
2023-04-20T07:55:30.776Z,8.45
2023-04-20T07:57:58.022Z,7.88
2023-04-20T08:00:25.393Z,8.43
2023-04-20T08:02:52.426Z,7.72
2023-04-20T08:05:19.528Z,7.57
2023-04-20T08:07:46.406Z,7.40
2023-04-20T08:10:13.276Z,7.55
2023-04-20T08:12:40.705Z,7.90
2023-04-20T08:15:08.281Z,7.70
2023-04-20T08:17:35.062Z,7.35
2023-04-20T08:20:02.024Z,7.90
2023-04-20T08:22:30.561Z,7.57
2023-04-20T08:24:57.638Z,7.20
2023-04-20T08:27:25.182Z,7.32
2023-04-20T08:29:52.284Z,7.85
2023-04-20T08:32:22.823Z,6.65
2023-04-20T08:34:53.651Z,7.07
2023-04-20T08:37:20.610Z,7.40
2023-04-20T08:39:47.526Z,7.72
2023-04-20T08:42:14.595Z,8.10
2023-04-20T08:44:41.535Z,7.72
2023-04-20T08:47:11.319Z,7.70
2023-04-20T08:49:39.999Z,7.97
2023-04-20T08:52:10.931Z,6.82
2023-04-20T08:54:46.062Z,7.85
2023-04-20T08:57:19.990Z,7.80
2023-04-20T08:59:46.781Z,7.80
2023-04-20T09:02:14.508Z,7.35
2023-04-20T09:04:41.628Z,6.88
2023-04-20T09:07:21.069Z,7.10
2023-04-20T09:09:58.315Z,7.35
2023-04-20T09:12:25.512Z,6.75
2023-04-20T09:14:53.463Z,6.30
2023-04-20T09:17:41.548Z,6.78
2023-04-20T09:20:08.962Z,6.90
2023-04-20T09:22:37.015Z,7.75
2023-04-20T09:25:17.441Z,6.90
2023-04-20T09:27:44.188Z,7.32
2023-04-20T09:30:11.878Z,7.22
2023-04-20T09:32:38.971Z,7.10
2023-04-20T09:35:08.201Z,7.03
2023-04-20T09:37:37.546Z,7.30
2023-04-20T09:40:06.328Z,6.85
2023-04-20T09:42:37.423Z,6.82
2023-04-20T09:45:04.806Z,7.35
2023-04-20T09:47:37.010Z,6.80
2023-04-20T09:50:19.517Z,7.97
2023-04-20T09:52:52.623Z,7.97
2023-04-20T09:55:19.539Z,7.22
2023-04-20T09:57:47.033Z,7.40
2023-04-20T10:00:14.396Z,9.48
2023-04-20T10:02:41.453Z,7.57
2023-04-20T10:05:08.903Z,7.50
2023-04-20T10:07:35.744Z,6.88
2023-04-20T10:10:16.319Z,7.80
2023-04-20T10:12:57.512Z,6.70
2023-04-20T10:15:36.465Z,6.57
2023-04-20T10:18:03.508Z,6.68
2023-04-20T10:20:30.715Z,6.55
2023-04-20T10:23:16.714Z,6.63
2023-04-20T10:25:45.563Z,6.15
2023-04-20T10:28:12.401Z,5.68
2023-04-20T10:30:50.787Z,5.95
2023-04-20T10:33:18.319Z,5.40
2023-04-20T10:35:55.224Z,5.63
2023-04-20T10:38:29.199Z,5.03
2023-04-20T10:40:56.236Z,5.22
2023-04-20T10:43:23.363Z,4.95
2023-04-20T10:45:50.852Z,5.38
2023-04-20T10:48:18.448Z,5.13
2023-04-20T10:50:45.658Z,4.90
2023-04-20T10:53:20.892Z,4.88
2023-04-20T10:55:48.323Z,4.43
2023-04-20T10:58:22.843Z,4.80
2023-04-20T11:01:04.860Z,4.90
2023-04-20T11:03:34.614Z,4.85
2023-04-20T11:06:02.744Z,4.22
2023-04-20T11:08:40.130Z,4.95
2023-04-20T11:11:18.582Z,4.45
2023-04-20T11:13:45.338Z,4.38
2023-04-20T11:16:20.063Z,4.43
2023-04-20T11:18:55.263Z,4.57
2023-04-20T11:21:22.791Z,4.55
2023-04-20T11:23:57.468Z,4.50
2023-04-20T11:26:35.527Z,5.18
2023-04-20T11:29:04.121Z,4.60
2023-04-20T11:31:31.161Z,4.95
2023-04-20T11:33:58.742Z,4.30
2023-04-20T11:36:28.728Z,5.07
2023-04-20T11:38:56.253Z,4.28
2023-04-20T11:41:23.454Z,4.75
2023-04-20T11:43:51.525Z,4.07
2023-04-20T11:46:21.680Z,4.32
2023-04-20T11:48:49.273Z,4.40
2023-04-20T11:51:16.170Z,4.75
2023-04-20T11:53:43.105Z,4.45
2023-04-20T11:56:09.979Z,4.53
2023-04-20T11:58:37.073Z,4.88
2023-04-20T12:01:05.680Z,4.80
2023-04-20T12:03:32.945Z,5.10
2023-04-20T12:05:59.927Z,5.18
2023-04-20T12:08:26.806Z,4.45
2023-04-20T12:10:53.533Z,5.18
2023-04-20T12:13:20.341Z,4.47
2023-04-20T12:15:47.409Z,4.30
2023-04-20T12:18:14.274Z,4.28
2023-04-20T12:20:41.138Z,4.18
2023-04-20T12:23:07.962Z,4.35
2023-04-20T12:25:34.800Z,4.60
2023-04-20T12:28:06.890Z,4.20
2023-04-20T12:30:35.589Z,4.28
2023-04-20T12:33:04.240Z,4.10
2023-04-20T12:35:31.220Z,4.30
2023-04-20T12:37:58.088Z,4.97
2023-04-20T12:40:25.213Z,5.65
2023-04-20T12:42:52.278Z,5.28
2023-04-20T12:45:19.459Z,5.43
2023-04-20T12:47:46.264Z,6.22
2023-04-20T12:50:13.092Z,5.97
2023-04-20T12:52:40.054Z,7.13
2023-04-20T12:55:08.221Z,6.43
2023-04-20T12:57:35.155Z,6.53
2023-04-20T13:00:06.335Z,6.38
2023-04-20T13:02:33.752Z,6.88
2023-04-20T13:05:00.791Z,6.63
2023-04-20T13:07:31.806Z,6.75
2023-04-20T13:10:02.038Z,7.05
2023-04-20T13:12:28.918Z,6.70
2023-04-20T13:14:56.154Z,6.82
2023-04-20T13:17:23.218Z,7.05
2023-04-20T13:19:50.680Z,6.57
2023-04-20T13:22:18.772Z,6.20
2023-04-20T13:24:46.244Z,6.68
2023-04-20T13:27:14.448Z,5.95
2023-04-20T13:29:41.662Z,6.03
2023-04-20T13:32:08.473Z,5.90
2023-04-20T13:34:35.416Z,5.53
2023-04-20T13:37:03.087Z,5.75
2023-04-20T13:39:30.336Z,5.53
2023-04-20T13:41:57.254Z,6.07
2023-04-20T13:44:24.150Z,5.88
2023-04-20T13:46:50.995Z,5.88
2023-04-20T13:49:17.757Z,6.45
2023-04-20T13:51:44.618Z,5.80
2023-04-20T13:54:11.444Z,5.10
2023-04-20T13:56:38.236Z,6.38
2023-04-20T13:59:05.002Z,6.20
2023-04-20T14:01:32.043Z,6.57
2023-04-20T14:03:59.412Z,6.05
2023-04-20T14:06:27.850Z,6.60
2023-04-20T14:08:54.760Z,5.72
2023-04-20T14:11:21.732Z,6.00
2023-04-20T14:13:48.794Z,6.45
2023-04-20T14:16:15.961Z,5.72
2023-04-20T14:18:42.919Z,5.85
2023-04-20T14:21:09.777Z,6.25
2023-04-20T14:23:36.671Z,6.28
2023-04-20T14:26:04.228Z,5.85
2023-04-20T14:28:33.484Z,6.60
2023-04-20T14:31:02.084Z,5.93
2023-04-20T14:33:29.382Z,5.97
2023-04-20T14:35:56.330Z,6.25
2023-04-20T14:38:25.580Z,6.28
2023-04-20T14:40:53.071Z,5.75
2023-04-20T14:43:20.044Z,6.80
2023-04-20T14:45:47.064Z,6.70
2023-04-20T14:48:13.950Z,6.40
2023-04-20T14:50:40.808Z,6.53
2023-04-20T14:53:07.601Z,6.85
2023-04-20T14:55:34.470Z,5.88
2023-04-20T14:58:01.232Z,6.68
2023-04-20T15:00:28.541Z,6.63
2023-04-20T15:02:57.046Z,6.00
2023-04-20T15:05:26.173Z,6.90
2023-04-20T15:07:57.268Z,5.78
2023-04-20T15:10:24.709Z,5.88
2023-04-20T15:12:51.557Z,5.75
2023-04-20T15:15:18.569Z,6.28
2023-04-20T15:17:49.298Z,6.50
2023-04-20T15:20:19.112Z,6.05
2023-04-20T15:22:46.389Z,6.35
2023-04-20T15:25:16.052Z,5.32
2023-04-20T15:27:42.907Z,5.78
2023-04-20T15:30:10.197Z,6.00
2023-04-20T15:32:37.128Z,6.15
2023-04-20T15:35:04.108Z,6.55
2023-04-20T15:37:30.910Z,6.10
2023-04-20T15:39:59.395Z,6.10
2023-04-20T15:42:27.776Z,6.55
2023-04-20T15:44:54.596Z,5.68
2023-04-20T15:47:21.468Z,6.35
2023-04-20T15:49:48.348Z,6.30
2023-04-20T15:52:15.098Z,5.35
2023-04-20T15:54:41.957Z,6.15
2023-04-20T15:57:08.705Z,6.22
2023-04-20T15:59:36.485Z,6.00
2023-04-20T16:02:03.346Z,6.93
2023-04-20T16:04:31.900Z,6.63
2023-04-20T16:06:58.960Z,6.18
2023-04-20T16:09:25.853Z,6.70
2023-04-20T16:11:52.671Z,6.43
2023-04-20T16:14:19.719Z,7.03
2023-04-20T16:16:46.749Z,6.15
2023-04-20T16:19:14.818Z,6.57
2023-04-20T16:21:41.577Z,7.50
2023-04-20T16:24:08.627Z,7.53
2023-04-20T16:26:35.402Z,7.25
2023-04-20T16:29:02.439Z,7.18
2023-04-20T16:31:29.881Z,7.68
2023-04-20T16:33:59.191Z,6.75
2023-04-20T16:36:26.954Z,7.72
2023-04-20T16:38:54.042Z,6.93
2023-04-20T16:41:21.056Z,6.72
2023-04-20T16:43:48.016Z,6.60
2023-04-20T16:46:16.625Z,7.30
2023-04-20T16:48:43.508Z,6.72
2023-04-20T16:51:10.317Z,7.20
2023-04-20T16:53:37.177Z,7.40
2023-04-20T16:56:04.005Z,7.82
2023-04-20T16:58:30.793Z,6.82
2023-04-20T17:00:57.608Z,7.65
2023-04-20T17:03:24.759Z,8.05
2023-04-20T17:05:51.732Z,7.85
2023-04-20T17:08:19.190Z,7.97
2023-04-20T17:10:46.074Z,7.93
2023-04-20T17:13:12.911Z,8.50
2023-04-20T17:15:42.910Z,8.63
2023-04-20T17:18:09.940Z,8.23
2023-04-20T17:20:36.827Z,8.18
2023-04-20T17:23:03.778Z,8.73
2023-04-20T17:25:30.739Z,8.57
2023-04-20T17:27:57.443Z,8.65
2023-04-20T17:30:24.293Z,8.88
2023-04-20T17:32:53.355Z,8.38
2023-04-20T17:35:20.165Z,8.85
2023-04-20T17:37:47.041Z,8.77
2023-04-20T17:40:14.103Z,8.52
2023-04-20T17:42:41.043Z,8.55
2023-04-20T17:45:12.051Z,9.40
2023-04-20T17:47:39.008Z,9.05
2023-04-20T17:50:06.626Z,9.23
2023-04-20T17:52:33.440Z,9.27
2023-04-20T17:55:00.552Z,9.02
2023-04-20T17:57:27.778Z,9.48
2023-04-20T17:59:54.640Z,9.55
2023-04-20T18:02:21.630Z,9.25
2023-04-20T18:04:48.602Z,9.82
2023-04-20T18:07:17.163Z,9.80
2023-04-20T18:09:44.048Z,10.10
2023-04-20T18:12:11.609Z,10.10
2023-04-20T18:14:40.488Z,10.38
2023-04-20T18:17:07.493Z,10.38
2023-04-20T18:19:34.449Z,10.15
2023-04-20T18:22:01.479Z,11.18
2023-04-20T18:24:28.834Z,11.23
2023-04-20T18:26:55.617Z,11.02
2023-04-20T18:29:22.664Z,10.30
2023-04-20T18:31:50.582Z,10.30
2023-04-20T18:34:18.090Z,10.75
2023-04-20T18:36:45.094Z,11.18
2023-04-20T18:39:11.995Z,10.32
2023-04-20T18:41:39.114Z,10.77
2023-04-20T18:44:07.290Z,11.52
2023-04-20T18:46:34.509Z,10.63
2023-04-20T18:49:01.584Z,11.10
2023-04-20T18:51:28.843Z,11.30
2023-04-20T18:53:55.666Z,10.60
2023-04-20T18:56:22.414Z,10.52
2023-04-20T18:58:49.697Z,11.20
2023-04-20T19:01:17.229Z,11.80
2023-04-20T19:03:47.082Z,12.43
2023-04-20T19:06:14.709Z,11.30
2023-04-20T19:08:41.429Z,10.95
2023-04-20T19:11:08.208Z,10.73
2023-04-20T19:13:35.308Z,10.80
2023-04-20T19:16:02.191Z,10.52
2023-04-20T19:18:29.079Z,9.75
2023-04-20T19:20:55.871Z,10.05
2023-04-20T19:23:22.660Z,9.57
2023-04-20T19:25:49.418Z,10.40
2023-04-20T19:28:16.385Z,10.93
2023-04-20T19:30:43.147Z,10.93
2023-04-20T19:33:10.215Z,10.50
2023-04-20T19:35:37.107Z,10.43
2023-04-20T19:38:04.217Z,11.43
2023-04-20T19:40:31.032Z,11.70
2023-04-20T19:42:57.730Z,11.27
2023-04-20T19:45:24.591Z,11.75
2023-04-20T19:47:52.071Z,11.57
2023-04-20T19:50:19.242Z,12.88
2023-04-20T19:52:46.068Z,12.98
2023-04-20T19:55:12.853Z,13.18
2023-04-20T19:57:39.636Z,13.52
2023-04-20T20:00:08.781Z,13.95
2023-04-20T20:02:36.432Z,13.98
2023-04-20T20:05:03.809Z,14.40
2023-04-20T20:07:30.689Z,15.48
2023-04-20T20:09:57.732Z,16.45
2023-04-20T20:12:24.468Z,17.45
2023-04-20T20:14:51.444Z,16.60
2023-04-20T20:17:19.698Z,18.15
2023-04-20T20:19:46.670Z,17.95
2023-04-20T20:22:13.582Z,18.23
2023-04-20T20:24:40.486Z,19.55
2023-04-20T20:27:07.331Z,19.35
2023-04-20T20:29:35.107Z,18.33
2023-04-20T20:32:02.001Z,18.80
2023-04-20T20:34:28.811Z,19.08
2023-04-20T20:36:55.541Z,20.83
2023-04-20T20:39:23.485Z,21.25
2023-04-20T20:41:51.556Z,20.35
2023-04-20T20:44:18.978Z,22.00
2023-04-20T20:46:46.191Z,21.92
2023-04-20T20:49:13.119Z,22.65
2023-04-20T20:51:39.868Z,22.42
2023-04-20T20:54:06.682Z,22.92
2023-04-20T20:56:33.394Z,22.83
2023-04-20T20:59:00.248Z,23.50
2023-04-20T21:01:27.152Z,23.65
2023-04-20T21:03:54.372Z,25.35
2023-04-20T21:06:21.530Z,26.23
2023-04-20T21:08:49.003Z,24.92
2023-04-20T21:11:16.004Z,24.98
2023-04-20T21:13:42.730Z,25.98
2023-04-20T21:16:09.664Z,25.13
2023-04-20T21:18:36.578Z,25.30
2023-04-20T21:21:03.373Z,28.35
2023-04-20T21:23:30.145Z,27.23
2023-04-20T21:25:57.057Z,28.17
2023-04-20T21:28:23.863Z,28.45
2023-04-20T21:30:50.723Z,29.13
2023-04-20T21:33:17.480Z,28.15
2023-04-20T21:35:44.298Z,27.83
2023-04-20T21:38:11.021Z,28.25
2023-04-20T21:40:37.765Z,28.10
2023-04-20T21:43:04.532Z,28.98
2023-04-20T21:45:31.345Z,29.13
2023-04-20T21:47:58.249Z,27.50
2023-04-20T21:50:27.259Z,25.23
2023-04-20T21:52:55.068Z,27.35
2023-04-20T21:55:21.977Z,27.67
2023-04-20T21:57:48.760Z,28.08
2023-04-20T22:00:15.892Z,27.88
2023-04-20T22:02:42.923Z,27.85
2023-04-20T22:05:10.508Z,28.02
2023-04-20T22:07:40.585Z,28.30
2023-04-20T22:10:07.995Z,28.85
2023-04-20T22:12:40.412Z,28.88
2023-04-20T22:15:12.512Z,29.55
2023-04-20T22:17:40.920Z,27.77
2023-04-20T22:20:10.583Z,30.20
2023-04-20T22:22:38.596Z,29.08
2023-04-20T22:25:07.470Z,29.80
2023-04-20T22:27:35.299Z,28.98
2023-04-20T22:30:02.331Z,30.08
2023-04-20T22:32:29.168Z,30.75
2023-04-20T22:34:56.234Z,29.77
2023-04-20T22:37:23.081Z,29.58
2023-04-20T22:39:50.111Z,29.05
2023-04-20T22:42:16.890Z,29.13
2023-04-20T22:44:43.720Z,29.23
2023-04-20T22:47:10.521Z,28.63
2023-04-20T22:49:37.832Z,29.50
2023-04-20T22:52:04.769Z,28.58
2023-04-20T22:54:31.571Z,29.10
2023-04-20T22:56:58.962Z,30.00
2023-04-20T22:59:25.792Z,28.02
2023-04-20T23:01:52.618Z,29.80
2023-04-20T23:04:19.450Z,29.88
2023-04-20T23:06:47.402Z,28.95
2023-04-20T23:09:17.524Z,29.83
2023-04-20T23:11:47.347Z,28.73
2023-04-20T23:14:14.415Z,28.73
2023-04-20T23:16:41.402Z,29.65
2023-04-20T23:19:08.615Z,30.00
2023-04-20T23:21:35.447Z,29.90
2023-04-20T23:24:02.308Z,32.72
2023-04-20T23:26:29.138Z,31.55
2023-04-20T23:28:56.043Z,31.20
2023-04-20T23:31:22.956Z,32.83
2023-04-20T23:33:49.989Z,33.38
2023-04-20T23:36:16.866Z,33.65
2023-04-20T23:38:44.092Z,31.90
2023-04-20T23:41:15.401Z,32.92
2023-04-20T23:43:42.779Z,33.75
2023-04-20T23:46:09.615Z,32.72
2023-04-20T23:48:36.451Z,33.08
2023-04-20T23:51:03.318Z,31.45
2023-04-20T23:53:30.109Z,33.22
2023-04-20T23:55:56.926Z,31.08
2023-04-20T23:58:27.693Z,31.42
